createdAt,value
2022-10-13T00:00:47.430Z,11.53
2022-10-13T00:03:14.885Z,10.93
2022-10-13T00:05:43.770Z,12.00
2022-10-13T00:08:11.987Z,10.10
2022-10-13T00:10:45.916Z,9.43
2022-10-13T00:13:14.169Z,8.70
2022-10-13T00:15:43.251Z,12.50
2022-10-13T00:18:10.032Z,11.70
2022-10-13T00:20:41.612Z,11.30
2022-10-13T00:23:08.752Z,8.83
2022-10-13T00:25:35.554Z,10.17
2022-10-13T00:28:02.287Z,12.37
2022-10-13T00:30:35.460Z,11.37
2022-10-13T00:33:02.238Z,9.50
2022-10-13T00:35:29.038Z,12.03
2022-10-13T00:37:55.885Z,10.73
2022-10-13T00:40:22.918Z,12.00
2022-10-13T00:42:49.685Z,8.63
2022-10-13T00:45:22.403Z,8.93
2022-10-13T00:47:54.745Z,10.80
2022-10-13T00:50:26.149Z,9.53
2022-10-13T00:52:57.125Z,10.63
2022-10-13T00:55:30.842Z,12.93
2022-10-13T00:58:05.173Z,10.13
2022-10-13T01:00:34.489Z,10.50
2022-10-13T01:03:02.745Z,10.87
2022-10-13T01:05:30.939Z,10.37
2022-10-13T01:07:59.430Z,9.80
2022-10-13T01:11:04.609Z,9.43
2022-10-13T01:13:36.328Z,9.87
2022-10-13T01:16:17.017Z,10.13
2022-10-13T01:19:11.289Z,8.47
2022-10-13T01:21:51.615Z,10.27
2022-10-13T01:24:45.208Z,9.30
2022-10-13T01:27:39.925Z,10.10
2022-10-13T01:30:19.411Z,9.23
2022-10-13T01:32:55.069Z,10.93
2022-10-13T01:35:48.894Z,9.43
2022-10-13T01:38:36.629Z,8.57
2022-10-13T01:41:22.452Z,8.00
2022-10-13T01:44:00.961Z,10.37
2022-10-13T01:46:33.496Z,11.50
2022-10-13T01:49:04.035Z,11.17
2022-10-13T01:51:32.412Z,8.70
2022-10-13T01:53:59.784Z,12.23
2022-10-13T01:56:26.526Z,14.47
2022-10-13T01:58:56.507Z,10.20
2022-10-13T02:01:51.897Z,10.97
2022-10-13T02:04:43.063Z,10.23
2022-10-13T02:07:28.103Z,10.67
2022-10-13T02:10:11.189Z,8.17
2022-10-13T02:13:01.279Z,9.20
2022-10-13T02:15:36.694Z,10.40
2022-10-13T02:18:07.164Z,11.00
2022-10-13T02:20:34.490Z,12.07
2022-10-13T02:23:07.147Z,9.87
2022-10-13T02:25:35.970Z,14.97
2022-10-13T02:28:03.800Z,10.50
2022-10-13T02:30:33.789Z,12.10
2022-10-13T02:33:01.923Z,10.80
2022-10-13T02:35:29.954Z,10.87
2022-10-13T02:38:01.099Z,12.17
2022-10-13T02:40:28.253Z,10.53
2022-10-13T02:42:55.480Z,9.93
2022-10-13T02:45:22.561Z,9.17
2022-10-13T02:47:49.876Z,8.87
2022-10-13T02:50:16.807Z,9.13
2022-10-13T02:52:43.616Z,10.83
2022-10-13T02:55:10.430Z,11.93
2022-10-13T02:57:38.126Z,12.67
2022-10-13T03:00:07.136Z,9.00
2022-10-13T03:02:34.118Z,9.30
2022-10-13T03:05:01.121Z,11.63
2022-10-13T03:07:27.942Z,11.67
2022-10-13T03:09:54.735Z,15.97
2022-10-13T03:12:21.928Z,11.37
2022-10-13T03:14:48.863Z,14.23
2022-10-13T03:17:15.642Z,11.63
2022-10-13T03:19:42.451Z,11.57
2022-10-13T03:22:15.282Z,9.67
2022-10-13T03:24:43.052Z,14.60
2022-10-13T03:27:10.765Z,10.37
2022-10-13T03:29:37.594Z,9.33
2022-10-13T03:32:04.713Z,12.83
2022-10-13T03:34:31.593Z,12.37
2022-10-13T03:36:58.446Z,10.87
2022-10-13T03:39:25.386Z,11.00
2022-10-13T03:41:52.130Z,9.80
2022-10-13T03:44:18.902Z,9.67
2022-10-13T03:46:45.704Z,11.43
2022-10-13T03:49:12.550Z,11.37
2022-10-13T03:51:39.387Z,13.67
2022-10-13T03:54:06.217Z,11.93
2022-10-13T03:56:33.324Z,12.83
2022-10-13T03:59:00.818Z,10.73
2022-10-13T04:01:29.441Z,11.27
2022-10-13T04:03:58.263Z,10.17
2022-10-13T04:06:26.321Z,13.93
2022-10-13T04:08:54.625Z,10.00
2022-10-13T04:11:22.111Z,13.77
2022-10-13T04:13:53.423Z,15.13
2022-10-13T04:16:24.059Z,12.90
2022-10-13T04:18:52.971Z,15.07
2022-10-13T04:21:19.857Z,15.37
2022-10-13T04:23:46.604Z,14.30
2022-10-13T04:26:21.925Z,13.90
2022-10-13T04:28:50.789Z,15.90
2022-10-13T04:31:18.440Z,16.57
2022-10-13T04:33:45.805Z,12.40
2022-10-13T04:36:14.383Z,16.47
2022-10-13T04:38:42.619Z,15.20
2022-10-13T04:41:10.637Z,21.20
2022-10-13T04:43:37.559Z,18.50
2022-10-13T04:46:16.469Z,12.23
2022-10-13T04:48:43.251Z,11.10
2022-10-13T04:51:20.401Z,16.90
2022-10-13T04:53:47.944Z,10.27
2022-10-13T04:56:18.238Z,14.33
2022-10-13T04:58:46.140Z,13.33
2022-10-13T05:01:22.130Z,19.83
2022-10-13T05:03:57.965Z,15.03
2022-10-13T05:06:32.172Z,16.47
2022-10-13T05:08:58.973Z,14.47
2022-10-13T05:11:27.449Z,12.97
2022-10-13T05:13:54.946Z,16.87
2022-10-13T05:16:22.487Z,11.60
2022-10-13T05:18:51.164Z,15.43
2022-10-13T05:21:24.017Z,15.93
2022-10-13T05:23:55.416Z,12.77
2022-10-13T05:26:27.835Z,16.80
2022-10-13T05:28:59.029Z,15.53
2022-10-13T05:31:30.762Z,17.33
2022-10-13T05:33:59.560Z,13.00
2022-10-13T05:36:27.928Z,14.37
2022-10-13T05:38:57.940Z,15.10
2022-10-13T05:41:26.362Z,16.70
2022-10-13T05:43:57.771Z,13.67
2022-10-13T05:46:25.214Z,16.90
2022-10-13T05:48:52.111Z,16.33
2022-10-13T05:51:39.787Z,18.80
2022-10-13T05:54:14.025Z,13.73
2022-10-13T05:56:44.957Z,15.17
2022-10-13T05:59:15.946Z,15.10
2022-10-13T06:01:47.622Z,17.47
2022-10-13T06:04:20.188Z,13.00
2022-10-13T06:06:48.751Z,16.47
2022-10-13T06:09:15.895Z,13.93
2022-10-13T06:11:43.576Z,12.83
2022-10-13T06:14:10.378Z,17.90
2022-10-13T06:16:37.164Z,14.87
2022-10-13T06:19:05.472Z,17.53
2022-10-13T06:21:35.058Z,14.23
2022-10-13T06:24:02.121Z,15.07
2022-10-13T06:26:28.904Z,14.13
2022-10-13T06:28:59.514Z,15.90
2022-10-13T06:31:27.611Z,12.87
2022-10-13T06:33:54.752Z,13.37
2022-10-13T06:36:21.577Z,15.53
2022-10-13T06:38:48.339Z,16.07
2022-10-13T06:41:17.215Z,16.27
2022-10-13T06:43:44.257Z,16.87
2022-10-13T06:46:12.216Z,13.30
2022-10-13T06:48:39.082Z,18.43
2022-10-13T06:51:08.377Z,19.60
2022-10-13T06:53:35.706Z,16.17
2022-10-13T06:56:04.804Z,15.73
2022-10-13T06:58:31.950Z,11.43
2022-10-13T07:00:58.782Z,20.83
2022-10-13T07:03:26.047Z,15.17
2022-10-13T07:05:53.117Z,16.07
2022-10-13T07:08:20.780Z,17.97
2022-10-13T07:10:47.621Z,17.97
2022-10-13T07:13:14.380Z,20.20
2022-10-13T07:15:41.804Z,16.03
2022-10-13T07:18:08.732Z,14.53
2022-10-13T07:20:35.705Z,15.77
2022-10-13T07:23:02.619Z,13.23
2022-10-13T07:25:29.721Z,12.17
2022-10-13T07:27:59.173Z,16.10
2022-10-13T07:30:26.408Z,16.83
2022-10-13T07:32:53.294Z,15.50
2022-10-13T07:35:20.270Z,14.77
2022-10-13T07:37:48.277Z,17.30
2022-10-13T07:40:15.090Z,23.53
2022-10-13T07:42:41.826Z,15.53
2022-10-13T07:45:09.229Z,17.50
2022-10-13T07:47:35.992Z,16.47
2022-10-13T07:50:02.835Z,18.23
2022-10-13T07:52:29.557Z,16.03
2022-10-13T07:54:56.705Z,17.37
2022-10-13T07:57:27.446Z,20.03
2022-10-13T07:59:54.226Z,20.30
2022-10-13T08:02:21.298Z,16.67
2022-10-13T08:04:48.659Z,20.37
2022-10-13T08:07:16.451Z,17.57
2022-10-13T08:09:43.929Z,18.57
2022-10-13T08:12:10.987Z,15.67
2022-10-13T08:14:37.907Z,16.80
2022-10-13T08:17:04.721Z,18.43
2022-10-13T08:19:31.503Z,17.07
2022-10-13T08:21:59.673Z,13.17
2022-10-13T08:24:27.987Z,14.43
2022-10-13T08:26:55.281Z,17.63
2022-10-13T08:29:23.569Z,13.50
2022-10-13T08:31:52.757Z,16.57
2022-10-13T08:34:20.301Z,18.07
2022-10-13T08:36:47.382Z,15.43
2022-10-13T08:39:14.259Z,14.00
2022-10-13T08:41:44.089Z,15.80
2022-10-13T08:45:02.636Z,14.83
2022-10-13T08:47:38.592Z,18.70
2022-10-13T08:50:38.991Z,16.17
2022-10-13T08:53:18.077Z,15.53
2022-10-13T08:55:55.918Z,17.40
2022-10-13T08:58:28.895Z,15.53
2022-10-13T09:01:10.763Z,18.97
2022-10-13T09:03:47.248Z,19.30
2022-10-13T09:06:28.928Z,19.00
2022-10-13T09:09:02.442Z,17.47
2022-10-13T09:11:33.820Z,15.10
2022-10-13T09:14:10.348Z,17.73
2022-10-13T09:16:43.947Z,18.73
2022-10-13T09:19:36.123Z,16.03
2022-10-13T09:22:34.029Z,19.33
2022-10-13T09:25:06.979Z,14.83
2022-10-13T09:27:51.541Z,17.33
2022-10-13T09:30:35.210Z,18.60
2022-10-13T09:33:09.344Z,14.67
2022-10-13T09:35:37.284Z,16.87
2022-10-13T09:38:05.500Z,17.40
2022-10-13T09:40:33.281Z,16.63
2022-10-13T09:43:02.346Z,21.17
2022-10-13T09:45:31.045Z,17.20
2022-10-13T09:48:07.818Z,21.60
2022-10-13T09:50:36.102Z,20.20
2022-10-13T09:53:35.577Z,16.90
2022-10-13T09:56:42.299Z,17.63
2022-10-13T09:59:28.660Z,18.50
2022-10-13T10:01:57.715Z,19.27
2022-10-13T10:04:30.119Z,18.57
2022-10-13T10:06:56.900Z,19.97
2022-10-13T10:09:51.570Z,18.47
2022-10-13T10:12:27.573Z,17.20
2022-10-13T10:14:54.740Z,17.63
2022-10-13T10:17:36.020Z,17.40
2022-10-13T10:20:26.951Z,20.53
2022-10-13T10:23:07.736Z,17.67
2022-10-13T10:25:57.399Z,14.87
2022-10-13T10:28:54.953Z,18.50
2022-10-13T10:31:34.110Z,14.50
2022-10-13T10:34:15.464Z,16.03
2022-10-13T10:36:54.758Z,18.37
2022-10-13T10:39:48.603Z,17.53
2022-10-13T10:42:23.183Z,23.53
2022-10-13T10:44:53.203Z,20.17
2022-10-13T10:47:30.348Z,19.37
2022-10-13T10:50:05.311Z,16.40
2022-10-13T10:53:09.086Z,17.80
2022-10-13T10:55:43.176Z,18.37
2022-10-13T10:58:28.234Z,16.80
2022-10-13T11:01:16.451Z,17.87
2022-10-13T11:03:53.418Z,18.00
2022-10-13T11:06:32.211Z,19.13
2022-10-13T11:08:59.138Z,23.57
2022-10-13T11:11:29.316Z,18.03
2022-10-13T11:14:06.954Z,22.77
2022-10-13T11:16:38.089Z,18.90
2022-10-13T11:19:32.020Z,17.93
2022-10-13T11:21:58.771Z,16.00
2022-10-13T11:24:38.882Z,18.33
2022-10-13T11:27:09.205Z,18.70
2022-10-13T11:29:52.192Z,14.33
2022-10-13T11:32:43.055Z,16.43
2022-10-13T11:35:12.808Z,16.10
2022-10-13T11:38:07.245Z,20.00
2022-10-13T11:40:40.645Z,15.03
2022-10-13T11:43:28.674Z,15.27
2022-10-13T11:46:01.353Z,11.60
2022-10-13T11:48:56.464Z,11.80
2022-10-13T11:51:23.758Z,14.93
2022-10-13T11:54:30.872Z,12.17
2022-10-13T11:56:58.432Z,15.30
2022-10-13T11:59:32.488Z,16.77
2022-10-13T12:02:11.872Z,12.83
2022-10-13T12:04:45.582Z,15.03
2022-10-13T12:07:16.049Z,17.17
2022-10-13T12:09:50.908Z,12.43
2022-10-13T12:12:22.563Z,14.87
2022-10-13T12:14:52.863Z,12.60
2022-10-13T12:17:27.342Z,14.70
2022-10-13T12:20:03.380Z,15.03
2022-10-13T12:22:31.013Z,14.37
2022-10-13T12:25:06.050Z,14.93
2022-10-13T12:27:44.218Z,12.50
2022-10-13T12:30:22.783Z,14.13
2022-10-13T12:32:52.433Z,14.63
2022-10-13T12:35:32.843Z,16.43
2022-10-13T12:38:15.608Z,18.83
2022-10-13T12:40:42.514Z,17.73
2022-10-13T12:43:22.131Z,18.17
2022-10-13T12:45:49.196Z,15.10
2022-10-13T12:48:31.354Z,14.73
2022-10-13T12:51:28.058Z,14.23
2022-10-13T12:53:55.113Z,16.73
2022-10-13T12:56:33.166Z,16.30
2022-10-13T12:59:00.832Z,15.47
2022-10-13T13:01:35.472Z,18.50
2022-10-13T13:04:17.142Z,12.57
2022-10-13T13:07:01.118Z,13.07
2022-10-13T13:09:38.829Z,15.07
2022-10-13T13:12:08.817Z,15.30
2022-10-13T13:14:38.654Z,15.27
2022-10-13T13:20:34.808Z,17.97
2022-10-13T13:23:02.772Z,18.00
2022-10-13T13:25:29.656Z,17.47
2022-10-13T13:27:56.436Z,16.73
2022-10-13T13:30:24.399Z,13.60
2022-10-13T13:32:51.415Z,14.43
2022-10-13T13:35:18.832Z,19.03
2022-10-13T13:37:51.042Z,18.50
2022-10-13T13:40:23.654Z,15.53
2022-10-13T13:42:50.801Z,16.03
2022-10-13T13:45:22.822Z,12.73
2022-10-13T13:47:50.273Z,15.57
2022-10-13T13:50:20.796Z,13.13
2022-10-13T13:52:56.376Z,14.97
2022-10-13T13:55:23.351Z,14.27
2022-10-13T13:57:50.186Z,17.60
2022-10-13T14:00:17.963Z,14.67
2022-10-13T14:02:53.422Z,13.50
2022-10-13T14:05:20.249Z,14.33
2022-10-13T14:07:47.103Z,15.13
2022-10-13T14:10:14.151Z,16.70
2022-10-13T14:12:40.933Z,13.53
2022-10-13T14:15:08.483Z,14.90
2022-10-13T14:17:35.265Z,14.33
2022-10-13T14:20:02.419Z,16.13
2022-10-13T14:22:29.246Z,16.03
2022-10-13T14:24:56.223Z,13.80
2022-10-13T14:27:23.233Z,13.50
2022-10-13T14:29:50.123Z,12.73
2022-10-13T14:32:18.141Z,14.53
2022-10-13T14:34:45.145Z,14.80
2022-10-13T14:37:11.897Z,13.70
2022-10-13T14:39:39.167Z,14.30
2022-10-13T14:42:05.951Z,14.20
2022-10-13T14:44:32.833Z,16.27
2022-10-13T14:47:00.128Z,14.63
2022-10-13T14:49:28.667Z,14.70
2022-10-13T14:51:55.716Z,14.93
2022-10-13T14:54:22.573Z,14.50
2022-10-13T14:56:49.529Z,12.53
2022-10-13T14:59:16.340Z,14.97
2022-10-13T15:01:43.516Z,14.80
2022-10-13T15:04:10.411Z,12.07
2022-10-13T15:06:39.231Z,13.17
2022-10-13T15:09:06.844Z,16.37
2022-10-13T15:11:35.626Z,15.50
2022-10-13T15:14:02.440Z,12.37
2022-10-13T15:16:32.593Z,12.90
2022-10-13T15:18:59.888Z,14.30
2022-10-13T15:21:26.988Z,15.03
2022-10-13T15:23:53.796Z,11.67
2022-10-13T15:26:21.088Z,16.47
2022-10-13T15:28:50.993Z,14.17
2022-10-13T15:31:19.609Z,16.60
2022-10-13T15:33:48.880Z,14.93
2022-10-13T15:36:15.736Z,22.10
2022-10-13T15:38:42.539Z,15.87
2022-10-13T15:41:10.721Z,20.17
2022-10-13T15:43:38.481Z,15.43
2022-10-13T15:46:12.263Z,17.23
2022-10-13T15:48:39.494Z,15.53
2022-10-13T15:51:13.492Z,15.67
2022-10-13T15:53:40.340Z,15.13
2022-10-13T15:56:08.254Z,14.80
2022-10-13T15:58:35.721Z,39.20
2022-10-13T16:01:26.892Z,15.10
2022-10-13T16:03:55.170Z,14.87
2022-10-13T16:06:22.492Z,16.10
2022-10-13T16:08:50.224Z,17.70
2022-10-13T16:11:20.135Z,17.60
2022-10-13T16:13:52.260Z,15.47
2022-10-13T16:16:19.284Z,16.30
2022-10-13T16:18:46.594Z,15.27
2022-10-13T16:21:18.783Z,17.13
2022-10-13T16:23:46.442Z,17.50
2022-10-13T16:26:13.668Z,14.53
2022-10-13T16:28:40.698Z,16.13
2022-10-13T16:31:13.471Z,14.33
2022-10-13T16:33:43.748Z,15.67
2022-10-13T16:36:14.278Z,16.67
2022-10-13T16:38:41.521Z,13.93
2022-10-13T16:41:11.919Z,15.23
2022-10-13T16:43:39.094Z,14.07
2022-10-13T16:46:08.184Z,18.20
2022-10-13T16:48:35.109Z,18.07
2022-10-13T16:51:06.615Z,20.47
2022-10-13T16:53:34.277Z,18.20
2022-10-13T16:56:01.264Z,18.10
2022-10-13T16:58:28.116Z,14.90
2022-10-13T17:01:06.154Z,17.23
2022-10-13T17:03:32.943Z,15.57
2022-10-13T17:05:59.717Z,19.50
2022-10-13T17:08:26.690Z,23.40
2022-10-13T17:10:58.032Z,18.47
2022-10-13T17:13:25.424Z,17.43
2022-10-13T17:15:54.387Z,15.37
2022-10-13T17:18:21.630Z,15.10
2022-10-13T17:20:59.791Z,14.87
2022-10-13T17:23:28.421Z,16.57
2022-10-13T17:25:56.212Z,21.93
2022-10-13T17:28:23.215Z,14.87
2022-10-13T17:31:06.893Z,13.67
2022-10-13T17:33:35.013Z,14.50
2022-10-13T17:36:05.259Z,15.60
2022-10-13T17:38:32.661Z,16.97
2022-10-13T17:41:01.300Z,16.87
2022-10-13T17:43:28.347Z,15.43
2022-10-13T17:46:07.447Z,14.40
2022-10-13T17:48:45.449Z,16.80
2022-10-13T17:51:15.291Z,17.87
2022-10-13T17:53:43.314Z,15.80
2022-10-13T17:56:23.100Z,17.33
2022-10-13T17:58:51.049Z,19.87
2022-10-13T18:01:23.924Z,15.10
2022-10-13T18:03:56.843Z,16.90
2022-10-13T18:06:30.594Z,15.57
2022-10-13T18:09:05.230Z,20.23
2022-10-13T18:11:32.216Z,19.20
2022-10-13T18:13:59.043Z,19.43
2022-10-13T18:16:25.816Z,20.43
2022-10-13T18:18:54.190Z,19.30
2022-10-13T18:21:23.919Z,21.53
2022-10-13T18:23:52.959Z,23.20
2022-10-13T18:26:20.133Z,20.50
2022-10-13T18:28:49.232Z,20.80
2022-10-13T18:31:30.793Z,20.17
2022-10-13T18:34:04.383Z,25.30
2022-10-13T18:36:36.750Z,23.23
2022-10-13T18:39:13.003Z,22.10
2022-10-13T18:41:41.141Z,26.83
2022-10-13T18:44:08.454Z,23.63
2022-10-13T18:46:37.125Z,21.60
2022-10-13T18:49:05.656Z,21.83
2022-10-13T18:51:36.262Z,26.37
2022-10-13T18:54:04.274Z,19.30
2022-10-13T18:56:32.216Z,25.20
2022-10-13T18:59:01.377Z,21.63
2022-10-13T19:01:30.981Z,23.13
2022-10-13T19:03:58.637Z,20.93
2022-10-13T19:06:27.435Z,24.10
2022-10-13T19:09:08.798Z,31.03
2022-10-13T19:11:37.243Z,24.97
2022-10-13T19:14:06.893Z,26.80
2022-10-13T19:16:37.453Z,21.90
2022-10-13T19:19:04.872Z,22.87
2022-10-13T19:21:32.790Z,22.13
2022-10-13T19:23:59.956Z,21.93
2022-10-13T19:26:29.820Z,25.73
2022-10-13T19:29:08.985Z,24.20
2022-10-13T19:31:37.072Z,25.43
2022-10-13T19:34:07.845Z,24.13
2022-10-13T19:36:45.046Z,21.17
2022-10-13T19:39:18.354Z,25.70
2022-10-13T19:41:47.056Z,25.67
2022-10-13T19:44:15.549Z,24.20
2022-10-13T19:46:44.117Z,24.77
2022-10-13T19:49:13.024Z,23.40
2022-10-13T19:51:45.119Z,22.77
2022-10-13T19:54:12.427Z,23.07
2022-10-13T19:56:44.571Z,24.83
2022-10-13T19:59:11.340Z,21.23
2022-10-13T20:01:40.901Z,24.87
2022-10-13T20:04:13.160Z,22.13
2022-10-13T20:06:43.438Z,26.03
2022-10-13T20:09:10.221Z,28.27
2022-10-13T20:11:37.113Z,21.63
2022-10-13T20:14:04.032Z,25.73
2022-10-13T20:16:30.856Z,23.83
2022-10-13T20:18:59.965Z,29.30
2022-10-13T20:21:28.085Z,24.97
2022-10-13T20:23:55.270Z,20.93
2022-10-13T20:26:22.998Z,21.17
2022-10-13T20:28:51.566Z,21.27
2022-10-13T20:31:20.608Z,23.33
2022-10-13T20:33:49.513Z,26.63
2022-10-13T20:36:18.933Z,21.90
2022-10-13T20:38:47.581Z,20.60
2022-10-13T20:41:20.194Z,21.03
2022-10-13T20:43:48.868Z,22.83
2022-10-13T20:46:17.611Z,27.57
2022-10-13T20:49:09.458Z,22.60
2022-10-13T20:51:31.734Z,21.97
2022-10-13T20:53:58.529Z,21.43
2022-10-13T20:56:26.636Z,26.37
2022-10-13T20:58:54.025Z,26.50
2022-10-13T21:01:22.844Z,21.00
2022-10-13T21:03:53.134Z,24.33
2022-10-13T21:06:20.768Z,24.80
2022-10-13T21:08:48.302Z,20.97
2022-10-13T21:11:16.791Z,23.13
2022-10-13T21:13:45.104Z,20.67
2022-10-13T21:16:20.490Z,21.63
2022-10-13T21:18:49.255Z,22.57
2022-10-13T21:21:18.802Z,20.73
2022-10-13T21:24:02.090Z,23.87
2022-10-13T21:26:30.443Z,22.00
2022-10-13T21:28:57.895Z,22.37
2022-10-13T21:31:25.679Z,20.37
2022-10-13T21:33:53.018Z,19.60
2022-10-13T21:36:25.110Z,23.93
2022-10-13T21:38:56.139Z,23.83
2022-10-13T21:41:23.564Z,24.40
2022-10-13T21:43:51.568Z,23.33
2022-10-13T21:46:23.563Z,22.07
2022-10-13T21:49:00.300Z,25.10
2022-10-13T21:51:38.144Z,21.97
2022-10-13T21:54:09.070Z,26.40
2022-10-13T21:56:37.947Z,22.50
2022-10-13T21:59:05.976Z,25.80
2022-10-13T22:01:34.094Z,23.67
2022-10-13T22:04:02.426Z,24.77
2022-10-13T22:06:32.067Z,27.00
2022-10-13T22:09:00.940Z,26.17
2022-10-13T22:11:30.508Z,21.53
2022-10-13T22:13:57.958Z,22.70
2022-10-13T22:16:28.671Z,25.57
2022-10-13T22:18:56.751Z,26.73
2022-10-13T22:21:32.542Z,23.17
2022-10-13T22:24:01.570Z,24.80
2022-10-13T22:26:30.966Z,25.47
2022-10-13T22:28:59.287Z,22.43
2022-10-13T22:31:26.482Z,23.57
2022-10-13T22:33:53.920Z,24.40
2022-10-13T22:36:23.475Z,23.07
2022-10-13T22:38:52.041Z,24.00
2022-10-13T22:41:19.587Z,25.13
2022-10-13T22:43:50.184Z,25.03
2022-10-13T22:46:19.202Z,26.37
2022-10-13T22:48:46.342Z,22.63
2022-10-13T22:51:19.633Z,26.47
2022-10-13T22:53:46.958Z,22.50
2022-10-13T22:56:17.379Z,26.03
2022-10-13T22:58:44.502Z,29.40
2022-10-13T23:01:13.855Z,27.13
2022-10-13T23:03:41.438Z,22.57
2022-10-13T23:06:12.449Z,25.47
2022-10-13T23:08:39.361Z,24.57
2022-10-13T23:11:06.221Z,25.63
2022-10-13T23:13:32.990Z,21.63
2022-10-13T23:16:04.618Z,26.23
2022-10-13T23:18:34.300Z,26.67
2022-10-13T23:21:05.571Z,25.40
2022-10-13T23:23:32.562Z,24.03
2022-10-13T23:26:04.449Z,23.53
2022-10-13T23:28:32.088Z,25.33
2022-10-13T23:31:03.130Z,25.33
2022-10-13T23:33:30.256Z,26.53
2022-10-13T23:35:59.463Z,24.57
2022-10-13T23:38:27.597Z,25.77
2022-10-13T23:40:54.602Z,25.00
2022-10-13T23:43:21.763Z,24.03
2022-10-13T23:45:48.518Z,24.00
2022-10-13T23:48:15.988Z,25.20
2022-10-13T23:50:42.724Z,26.13
2022-10-13T23:53:09.555Z,26.37
2022-10-13T23:55:39.741Z,24.93
2022-10-13T23:58:06.696Z,26.00
